Weather History for Dayton Wright, OH

Change the Weather History Date:

Thursday, January 31, 2013

  Actual Average (KFFO) Record (KFFO)
Temperature  
Mean Temperature 22 °F -  
Max Temperature 30 °F 36 °F 62 °F (2002)
Min Temperature 15 °F 20 °F -5 °F (2004)
Degree Days  
Heating Degree Days 42    
Moisture  
Dew Point 16 °F    
Average Humidity 73    
Maximum Humidity 93    
Minimum Humidity 51    
Precipitation  
Precipitation 0.01 in - - ()
Sea Level Pressure  
Sea Level Pressure 29.85 in    
Wind  
Wind Speed 17 mph (West)    
Max Wind Speed 23 mph    
Max Gust Speed 38 mph    
Visibility 5 miles    
Events Fog , Snow    
Averages and records for this station are not official NWS values.
T = Trace of Precipitation, MM = Missing Value Source: NWS Daily Summary

Daily Weather History Graph

Daily Weather History Graph

Search for Another Location

Airport:

Trip Planner

Search our weather history database for the weather conditions in past years. The results will help you decide how hot, cold, wet, or windy it might be!

Date:

Astronomy

Jan. 31, 2013 Rise Set
Actual Time 7:45 AM EST 5:56 PM EST
Civil Twilight 7:16 AM EST 6:24 PM EST
Nautical Twilight 6:44 AM EST 6:56 PM EST
Astronomical Twilight 6:12 AM EST 7:28 PM EST
Moon 10:56 PM EST (1/31) 9:45 AM EST (1/31)
Length of Visible Light 11h 07m
Length of Day
10h 10m
Waning Gibbous, 80% of the Moon is Illuminated
Jan 31
Waning Gibbous
Feb 3
Last Quarter
Feb 10
New
Feb 17
First Quarter
Feb 25
Full

Hourly Weather History & Observations

Time (EST) Temp. Windchill Dew Point Humidity Pressure Visibility Wind Dir Wind Speed Gust Speed Precip Events Conditions
12:53 AM 30.9 °F 17.8 °F 21.9 °F 69% 29.57 in 10.0 mi West 23.0 mph 36.8 mph N/A   Overcast
1:07 AM 30.2 °F 16.8 °F 21.2 °F 69% 29.57 in 10.0 mi West 23.0 mph 34.5 mph N/A   Overcast
1:14 AM 30.2 °F 18.9 °F 21.2 °F 69% 29.58 in 10.0 mi West 16.1 mph 33.4 mph N/A   Overcast
1:53 AM 28.9 °F 15.4 °F 21.9 °F 75% 29.62 in 9.0 mi West 21.9 mph 34.5 mph 0.00 in Snow Light Snow
2:53 AM 27.0 °F 12.5 °F 19.9 °F 75% 29.67 in 10.0 mi WSW 23.0 mph 34.5 mph 0.00 in Snow Light Snow
3:53 AM 26.1 °F 13.1 °F 18.0 °F 71% 29.70 in 8.0 mi West 17.3 mph 35.7 mph 0.00 in Snow Light Snow
4:53 AM 25.0 °F 12.2 °F 14.0 °F 63% 29.73 in 9.0 mi West 16.1 mph 38.0 mph 0.00 in Snow Light Snow
5:11 AM 24.8 °F 12.9 °F 15.8 °F 69% 29.71 in 4.0 mi West 13.8 mph 21.9 mph 0.00 in Snow Light Snow
5:48 AM 24.8 °F 10.3 °F 14.0 °F 64% 29.72 in 10.0 mi West 20.7 mph 36.8 mph 0.00 in Snow Light Snow
5:53 AM 25.0 °F 12.6 °F 14.0 °F 63% 29.74 in 9.0 mi West 15.0 mph 29.9 mph 0.00 in Snow Light Snow
6:53 AM 24.1 °F 11.0 °F 14.0 °F 65% 29.77 in 10.0 mi West 16.1 mph 25.3 mph 0.00 in   Overcast
7:13 AM 24.8 °F 12.4 °F 15.8 °F 69% 29.76 in 4.0 mi West 15.0 mph 24.2 mph 0.00 in Snow Light Snow
7:23 AM 24.8 °F 12.4 °F 17.6 °F 74% 29.76 in 2.0 mi WSW 15.0 mph 24.2 mph 0.00 in Snow Light Snow
7:36 AM 24.8 °F 14.6 °F 17.6 °F 74% 29.77 in 5.0 mi WSW 10.4 mph 21.9 mph 0.00 in Snow Light Snow
7:43 AM 24.8 °F 10.0 °F 17.6 °F 74% 29.78 in 2.5 mi West 21.9 mph 32.2 mph 0.00 in Snow Light Snow
7:47 AM 23.0 °F 11.7 °F 19.4 °F 86% 29.78 in 0.8 mi West 11.5 mph 32.2 mph 0.00 in Snow Light Snow
7:53 AM 23.0 °F 9.6 °F 19.0 °F 85% 29.81 in 0.8 mi West 16.1 mph 20.7 mph 0.00 in Snow Light Snow
7:56 AM 23.0 °F 10.1 °F 17.6 °F 80% 29.78 in 1.2 mi West 15.0 mph 24.2 mph 0.00 in Snow Light Snow
8:00 AM 23.0 °F 10.6 °F 17.6 °F 80% 29.79 in 3.0 mi West 13.8 mph 24.2 mph 0.00 in Snow Light Snow
8:53 AM 21.9 °F 6.9 °F 12.0 °F 66% 29.85 in 8.0 mi West 19.6 mph 31.1 mph 0.00 in   Overcast
9:53 AM 21.9 °F 8.7 °F 10.9 °F 63% 29.89 in 10.0 mi West 15.0 mph 25.3 mph 0.00 in   Overcast
10:53 AM 24.1 °F 11.5 °F 14.0 °F 65% 29.91 in 5.0 mi WSW 15.0 mph 26.5 mph 0.00 in Snow Light Snow
11:53 AM 25.0 °F 11.3 °F 14.0 °F 63% 29.91 in 9.0 mi WSW 18.4 mph 27.6 mph 0.00 in   Overcast
12:53 PM 27.0 °F 12.5 °F 12.9 °F 56% 29.89 in 10.0 mi WSW 23.0 mph 29.9 mph N/A   Overcast
1:53 PM 28.0 °F 14.3 °F 15.1 °F 58% 29.89 in 10.0 mi WSW 21.9 mph 29.9 mph N/A   Overcast
2:53 PM 28.9 °F 15.4 °F 12.9 °F 51% 29.88 in 10.0 mi WSW 21.9 mph 32.2 mph N/A   Overcast
3:53 PM 28.9 °F 16.1 °F 15.1 °F 56% 29.89 in 10.0 mi WSW 19.6 mph 32.2 mph N/A   Overcast
4:53 PM 28.9 °F 20.4 °F 15.1 °F 56% 29.89 in 10.0 mi West 9.2 mph 23.0 mph N/A   Overcast
5:15 PM 26.6 °F 15.2 °F 17.6 °F 69% 29.86 in 2.5 mi WSW 13.8 mph 32.2 mph 0.00 in Snow Light Snow
5:23 PM 26.6 °F 17.5 °F 17.6 °F 69% 29.86 in 9.0 mi West 9.2 mph 19.6 mph 0.00 in   Overcast
5:53 PM 28.0 °F 18.6 °F 17.1 °F 63% 29.89 in 10.0 mi West 10.4 mph 17.3 mph 0.00 in   Overcast
6:53 PM 28.0 °F 20.0 °F 16.0 °F 61% 29.91 in 10.0 mi WSW 8.1 mph - N/A   Overcast
7:38 PM 26.6 °F 14.3 °F 19.4 °F 74% 29.89 in 1.5 mi West 16.1 mph 25.3 mph 0.00 in Snow Light Snow
7:47 PM 24.8 °F 13.4 °F 21.2 °F 86% 29.90 in 0.8 mi West 12.7 mph 21.9 mph 0.00 in Snow Light Snow
7:48 PM 24.8 °F 14.0 °F 21.2 °F 86% 29.90 in 0.8 mi West 11.5 mph 20.7 mph 0.00 in Snow Light Snow
7:53 PM 25.0 °F 13.1 °F 21.9 °F 88% 29.94 in 0.5 mi West 13.8 mph 19.6 mph 0.00 in Fog , Snow Snow
8:22 PM 24.8 °F 15.3 °F 21.2 °F 86% 29.90 in 1.0 mi West 9.2 mph - 0.01 in Snow Light Snow
8:31 PM 24.8 °F 14.6 °F 21.2 °F 86% 29.90 in 0.8 mi West 10.4 mph - 0.01 in Snow Light Snow
8:38 PM 23.0 °F 11.7 °F 21.2 °F 93% 29.90 in 0.8 mi West 11.5 mph - 0.01 in Snow Light Snow
8:53 PM 23.0 °F 10.1 °F 19.9 °F 88% 29.94 in 1.0 mi WNW 15.0 mph 20.7 mph 0.01 in Snow Light Snow
8:59 PM 23.0 °F 11.7 °F 19.4 °F 86% 29.90 in 1.2 mi NW 11.5 mph 20.7 mph 0.00 in Snow Light Snow
9:09 PM 21.2 °F 9.5 °F 19.4 °F 93% 29.90 in 3.0 mi WNW 11.5 mph 18.4 mph 0.00 in Snow Light Snow
9:31 PM 21.2 °F 8.3 °F 17.6 °F 86% 29.91 in 1.8 mi WNW 13.8 mph 24.2 mph 0.00 in Snow Light Snow
9:38 PM 21.2 °F 6.8 °F 15.8 °F 80% 29.92 in 2.0 mi WNW 17.3 mph 24.2 mph 0.00 in Snow Light Snow
9:53 PM 21.0 °F 8.6 °F 14.0 °F 74% 29.96 in 2.5 mi WNW 12.7 mph 25.3 mph 0.00 in Snow Light Snow
10:13 PM 19.4 °F 5.0 °F 14.0 °F 80% 29.93 in 3.0 mi NNW 16.1 mph 26.5 mph 0.00 in Snow Light Snow
10:31 PM 17.6 °F 2.2 °F 10.4 °F 73% 29.94 in 2.5 mi NW 17.3 mph 28.8 mph 0.00 in Snow Light Snow
10:40 PM 17.6 °F 4.3 °F 10.4 °F 73% 29.95 in 5.0 mi NW 12.7 mph 21.9 mph 0.00 in Snow Light Snow
10:53 PM 17.1 °F 0.6 °F 10.0 °F 74% 29.99 in 4.0 mi NW 19.6 mph 25.3 mph 0.00 in Snow Light Snow
11:11 PM 15.8 °F 0.9 °F 8.6 °F 73% 29.96 in 2.5 mi NW 15.0 mph 25.3 mph 0.00 in Snow Light Snow
11:19 PM 15.8 °F 0.9 °F 8.6 °F 73% 29.97 in 5.0 mi NW 15.0 mph 24.2 mph 0.00 in Snow Light Snow
11:28 PM 15.8 °F -1.1 °F 10.4 °F 79% 29.97 in 4.0 mi WNW 19.6 mph 26.5 mph 0.00 in Snow Light Snow
11:33 PM 15.8 °F -0.6 °F 10.4 °F 79% 29.98 in 1.8 mi WNW 18.4 mph 27.6 mph 0.00 in Snow Light Snow
11:46 PM 15.8 °F 0.9 °F 8.6 °F 73% 29.99 in 3.0 mi WNW 15.0 mph 24.2 mph 0.00 in Snow Light Snow
11:53 PM 15.1 °F 1.1 °F 8.1 °F 74% 30.04 in 8.0 mi WNW 12.7 mph 23.0 mph 0.00 in   Overcast